sensor_id;sensor_type;location;lat;lon;timestamp;P1;durP1;ratioP1;P2;durP2;ratioP2
53666;SDS011;39568;51.026;5.468;2023-02-15T00:01:54;109.13;;;47.55;;
53666;SDS011;39568;51.026;5.468;2023-02-15T00:04:23;100.22;;;43.88;;
53666;SDS011;39568;51.026;5.468;2023-02-15T00:07:11;103.45;;;44.63;;
53666;SDS011;39568;51.026;5.468;2023-02-15T00:12:59;108.35;;;43.13;;
53666;SDS011;39568;51.026;5.468;2023-02-15T00:15:26;99.32;;;43.05;;
53666;SDS011;39568;51.026;5.468;2023-02-15T00:17:53;98.63;;;44.67;;
53666;SDS011;39568;51.026;5.468;2023-02-15T00:20:19;109.53;;;45.28;;
53666;SDS011;39568;51.026;5.468;2023-02-15T00:22:46;98.53;;;44.05;;
53666;SDS011;39568;51.026;5.468;2023-02-15T00:25:13;99.72;;;43.85;;
53666;SDS011;39568;51.026;5.468;2023-02-15T00:27:40;95.82;;;43.97;;
53666;SDS011;39568;51.026;5.468;2023-02-15T00:30:08;102.78;;;44.45;;
53666;SDS011;39568;51.026;5.468;2023-02-15T00:32:36;93.25;;;43.10;;
53666;SDS011;39568;51.026;5.468;2023-02-15T00:35:02;93.25;;;42.22;;
53666;SDS011;39568;51.026;5.468;2023-02-15T00:37:29;93.05;;;44.90;;
53666;SDS011;39568;51.026;5.468;2023-02-15T00:39:56;103.93;;;45.92;;
53666;SDS011;39568;51.026;5.468;2023-02-15T00:42:23;97.18;;;45.38;;
53666;SDS011;39568;51.026;5.468;2023-02-15T00:44:50;112.72;;;49.00;;
53666;SDS011;39568;51.026;5.468;2023-02-15T00:47:18;117.95;;;47.35;;
53666;SDS011;39568;51.026;5.468;2023-02-15T00:49:45;107.47;;;46.78;;
53666;SDS011;39568;51.026;5.468;2023-02-15T00:52:11;109.97;;;47.50;;
53666;SDS011;39568;51.026;5.468;2023-02-15T00:54:38;101.10;;;46.50;;
53666;SDS011;39568;51.026;5.468;2023-02-15T00:57:05;102.88;;;47.30;;
53666;SDS011;39568;51.026;5.468;2023-02-15T00:59:31;98.57;;;43.78;;
53666;SDS011;39568;51.026;5.468;2023-02-15T01:01:58;101.22;;;46.97;;
53666;SDS011;39568;51.026;5.468;2023-02-15T01:04:26;108.38;;;46.75;;
53666;SDS011;39568;51.026;5.468;2023-02-15T01:06:53;105.50;;;45.22;;
53666;SDS011;39568;51.026;5.468;2023-02-15T01:09:19;97.82;;;43.47;;
53666;SDS011;39568;51.026;5.468;2023-02-15T01:11:47;100.50;;;43.40;;
53666;SDS011;39568;51.026;5.468;2023-02-15T01:14:14;103.22;;;45.00;;
53666;SDS011;39568;51.026;5.468;2023-02-15T01:16:40;105.28;;;44.90;;
53666;SDS011;39568;51.026;5.468;2023-02-15T01:19:07;106.88;;;45.15;;
53666;SDS011;39568;51.026;5.468;2023-02-15T01:21:35;109.75;;;46.30;;
53666;SDS011;39568;51.026;5.468;2023-02-15T01:24:02;102.72;;;47.05;;
53666;SDS011;39568;51.026;5.468;2023-02-15T01:26:29;106.63;;;48.40;;
53666;SDS011;39568;51.026;5.468;2023-02-15T01:28:56;107.45;;;47.42;;
53666;SDS011;39568;51.026;5.468;2023-02-15T01:31:23;115.22;;;43.90;;
53666;SDS011;39568;51.026;5.468;2023-02-15T01:33:49;104.07;;;44.33;;
53666;SDS011;39568;51.026;5.468;2023-02-15T01:36:16;111.88;;;44.67;;
53666;SDS011;39568;51.026;5.468;2023-02-15T01:38:44;113.20;;;45.13;;
53666;SDS011;39568;51.026;5.468;2023-02-15T01:41:11;87.00;;;40.60;;
53666;SDS011;39568;51.026;5.468;2023-02-15T01:43:49;99.10;;;45.30;;
53666;SDS011;39568;51.026;5.468;2023-02-15T01:46:17;101.97;;;43.53;;
53666;SDS011;39568;51.026;5.468;2023-02-15T01:48:46;103.30;;;44.25;;
53666;SDS011;39568;51.026;5.468;2023-02-15T01:51:17;102.15;;;43.13;;
53666;SDS011;39568;51.026;5.468;2023-02-15T01:53:49;92.78;;;42.65;;
53666;SDS011;39568;51.026;5.468;2023-02-15T01:56:21;96.90;;;44.22;;
53666;SDS011;39568;51.026;5.468;2023-02-15T01:58:51;104.28;;;41.90;;
53666;SDS011;39568;51.026;5.468;2023-02-15T02:01:22;97.13;;;42.85;;
53666;SDS011;39568;51.026;5.468;2023-02-15T02:03:53;99.90;;;43.58;;
53666;SDS011;39568;51.026;5.468;2023-02-15T02:06:26;105.75;;;46.63;;
53666;SDS011;39568;51.026;5.468;2023-02-15T02:08:54;111.75;;;44.95;;
53666;SDS011;39568;51.026;5.468;2023-02-15T02:11:22;113.50;;;43.83;;
53666;SDS011;39568;51.026;5.468;2023-02-15T02:13:48;116.95;;;48.90;;
53666;SDS011;39568;51.026;5.468;2023-02-15T02:16:19;98.00;;;45.70;;
53666;SDS011;39568;51.026;5.468;2023-02-15T02:18:54;104.53;;;44.70;;
53666;SDS011;39568;51.026;5.468;2023-02-15T02:25:05;103.82;;;45.00;;
53666;SDS011;39568;51.026;5.468;2023-02-15T02:27:43;105.22;;;44.20;;
53666;SDS011;39568;51.026;5.468;2023-02-15T02:33:17;106.70;;;44.92;;
53666;SDS011;39568;51.026;5.468;2023-02-15T02:35:56;99.53;;;44.55;;
53666;SDS011;39568;51.026;5.468;2023-02-15T02:38:33;97.55;;;44.22;;
53666;SDS011;39568;51.026;5.468;2023-02-15T02:41:11;109.03;;;44.15;;
53666;SDS011;39568;51.026;5.468;2023-02-15T02:43:44;95.97;;;44.38;;
53666;SDS011;39568;51.026;5.468;2023-02-15T02:46:19;106.22;;;45.08;;
53666;SDS011;39568;51.026;5.468;2023-02-15T02:48:49;109.45;;;46.63;;
53666;SDS011;39568;51.026;5.468;2023-02-15T02:51:17;95.40;;;42.90;;
53666;SDS011;39568;51.026;5.468;2023-02-15T02:53:48;109.95;;;45.97;;
53666;SDS011;39568;51.026;5.468;2023-02-15T02:56:20;116.13;;;44.55;;
53666;SDS011;39568;51.026;5.468;2023-02-15T02:58:51;106.07;;;46.65;;
53666;SDS011;39568;51.026;5.468;2023-02-15T03:04:14;90.38;;;42.70;;
53666;SDS011;39568;51.026;5.468;2023-02-15T03:06:45;100.75;;;47.35;;
53666;SDS011;39568;51.026;5.468;2023-02-15T03:09:17;106.43;;;45.58;;
53666;SDS011;39568;51.026;5.468;2023-02-15T03:11:59;105.18;;;45.55;;
53666;SDS011;39568;51.026;5.468;2023-02-15T03:14:28;107.22;;;44.55;;
53666;SDS011;39568;51.026;5.468;2023-02-15T03:16:55;98.15;;;43.85;;
53666;SDS011;39568;51.026;5.468;2023-02-15T03:19:25;110.35;;;45.13;;
53666;SDS011;39568;51.026;5.468;2023-02-15T03:21:56;104.13;;;45.22;;
53666;SDS011;39568;51.026;5.468;2023-02-15T03:24:34;111.00;;;45.92;;
53666;SDS011;39568;51.026;5.468;2023-02-15T03:27:04;103.28;;;43.95;;
53666;SDS011;39568;51.026;5.468;2023-02-15T03:29:36;116.28;;;45.70;;
53666;SDS011;39568;51.026;5.468;2023-02-15T03:32:04;116.05;;;47.50;;
53666;SDS011;39568;51.026;5.468;2023-02-15T03:34:37;114.30;;;45.78;;
53666;SDS011;39568;51.026;5.468;2023-02-15T03:37:05;111.68;;;45.05;;
53666;SDS011;39568;51.026;5.468;2023-02-15T03:39:39;114.55;;;48.03;;
53666;SDS011;39568;51.026;5.468;2023-02-15T03:42:11;103.55;;;46.10;;
53666;SDS011;39568;51.026;5.468;2023-02-15T03:47:15;116.85;;;50.05;;
53666;SDS011;39568;51.026;5.468;2023-02-15T03:49:45;116.90;;;48.72;;
53666;SDS011;39568;51.026;5.468;2023-02-15T03:52:17;110.07;;;45.90;;
53666;SDS011;39568;51.026;5.468;2023-02-15T03:54:44;114.80;;;47.72;;
53666;SDS011;39568;51.026;5.468;2023-02-15T03:57:14;129.52;;;50.00;;
53666;SDS011;39568;51.026;5.468;2023-02-15T04:00:00;126.53;;;53.20;;
53666;SDS011;39568;51.026;5.468;2023-02-15T04:02:52;125.70;;;52.28;;
53666;SDS011;39568;51.026;5.468;2023-02-15T04:05:31;110.55;;;45.70;;
53666;SDS011;39568;51.026;5.468;2023-02-15T04:07:58;117.53;;;49.83;;
53666;SDS011;39568;51.026;5.468;2023-02-15T04:10:25;123.85;;;50.83;;
53666;SDS011;39568;51.026;5.468;2023-02-15T04:13:09;106.97;;;43.97;;
53666;SDS011;39568;51.026;5.468;2023-02-15T04:15:36;124.68;;;48.60;;
53666;SDS011;39568;51.026;5.468;2023-02-15T04:18:20;119.32;;;47.65;;
53666;SDS011;39568;51.026;5.468;2023-02-15T04:20:48;114.22;;;48.58;;
53666;SDS011;39568;51.026;5.468;2023-02-15T04:23:32;99.72;;;44.13;;
53666;SDS011;39568;51.026;5.468;2023-02-15T04:26:16;100.72;;;45.20;;
53666;SDS011;39568;51.026;5.468;2023-02-15T04:28:43;110.43;;;46.78;;
53666;SDS011;39568;51.026;5.468;2023-02-15T04:31:10;101.78;;;44.13;;
53666;SDS011;39568;51.026;5.468;2023-02-15T04:33:36;109.72;;;43.67;;
53666;SDS011;39568;51.026;5.468;2023-02-15T04:36:05;114.35;;;44.90;;
53666;SDS011;39568;51.026;5.468;2023-02-15T04:38:31;123.50;;;47.80;;
53666;SDS011;39568;51.026;5.468;2023-02-15T04:40:58;128.82;;;50.15;;
53666;SDS011;39568;51.026;5.468;2023-02-15T04:43:25;101.68;;;43.97;;
53666;SDS011;39568;51.026;5.468;2023-02-15T04:45:51;109.53;;;47.03;;
53666;SDS011;39568;51.026;5.468;2023-02-15T04:48:18;108.47;;;47.03;;
53666;SDS011;39568;51.026;5.468;2023-02-15T04:50:45;120.65;;;47.13;;
53666;SDS011;39568;51.026;5.468;2023-02-15T04:53:13;117.03;;;46.78;;
53666;SDS011;39568;51.026;5.468;2023-02-15T04:55:41;114.25;;;44.88;;
53666;SDS011;39568;51.026;5.468;2023-02-15T04:58:08;130.02;;;48.53;;
53666;SDS011;39568;51.026;5.468;2023-02-15T05:00:35;119.15;;;46.67;;
53666;SDS011;39568;51.026;5.468;2023-02-15T05:03:02;126.57;;;45.67;;
53666;SDS011;39568;51.026;5.468;2023-02-15T05:05:29;109.80;;;46.22;;
53666;SDS011;39568;51.026;5.468;2023-02-15T05:07:55;119.03;;;44.50;;
53666;SDS011;39568;51.026;5.468;2023-02-15T05:10:23;112.28;;;44.55;;
53666;SDS011;39568;51.026;5.468;2023-02-15T05:12:50;123.25;;;47.25;;
53666;SDS011;39568;51.026;5.468;2023-02-15T05:15:17;119.00;;;47.42;;
53666;SDS011;39568;51.026;5.468;2023-02-15T05:17:44;126.57;;;46.22;;
53666;SDS011;39568;51.026;5.468;2023-02-15T05:20:10;116.20;;;46.63;;
53666;SDS011;39568;51.026;5.468;2023-02-15T05:22:37;112.18;;;46.42;;
53666;SDS011;39568;51.026;5.468;2023-02-15T05:25:05;129.68;;;46.63;;
53666;SDS011;39568;51.026;5.468;2023-02-15T05:27:51;123.75;;;47.85;;
53666;SDS011;39568;51.026;5.468;2023-02-15T05:30:35;122.88;;;46.80;;
53666;SDS011;39568;51.026;5.468;2023-02-15T05:33:04;107.40;;;45.70;;
53666;SDS011;39568;51.026;5.468;2023-02-15T05:35:31;110.32;;;48.45;;
53666;SDS011;39568;51.026;5.468;2023-02-15T05:37:58;112.65;;;47.15;;
53666;SDS011;39568;51.026;5.468;2023-02-15T05:40:25;115.93;;;49.47;;
53666;SDS011;39568;51.026;5.468;2023-02-15T05:42:53;118.38;;;48.85;;
53666;SDS011;39568;51.026;5.468;2023-02-15T05:45:20;116.00;;;46.22;;
53666;SDS011;39568;51.026;5.468;2023-02-15T05:47:46;118.43;;;47.13;;
53666;SDS011;39568;51.026;5.468;2023-02-15T05:50:13;129.68;;;46.80;;
53666;SDS011;39568;51.026;5.468;2023-02-15T05:52:40;128.60;;;47.75;;
53666;SDS011;39568;51.026;5.468;2023-02-15T05:55:07;127.03;;;48.22;;
53666;SDS011;39568;51.026;5.468;2023-02-15T05:57:34;146.48;;;51.60;;
53666;SDS011;39568;51.026;5.468;2023-02-15T06:00:03;129.65;;;47.90;;
53666;SDS011;39568;51.026;5.468;2023-02-15T06:02:32;120.63;;;48.72;;
53666;SDS011;39568;51.026;5.468;2023-02-15T06:04:59;135.60;;;49.15;;
53666;SDS011;39568;51.026;5.468;2023-02-15T06:07:26;134.30;;;49.30;;
53666;SDS011;39568;51.026;5.468;2023-02-15T06:09:53;127.78;;;49.70;;
53666;SDS011;39568;51.026;5.468;2023-02-15T06:12:19;128.18;;;49.50;;
53666;SDS011;39568;51.026;5.468;2023-02-15T06:14:46;137.27;;;51.58;;
53666;SDS011;39568;51.026;5.468;2023-02-15T06:17:14;156.07;;;55.22;;
53666;SDS011;39568;51.026;5.468;2023-02-15T06:19:42;171.88;;;57.10;;
53666;SDS011;39568;51.026;5.468;2023-02-15T06:22:09;146.63;;;56.00;;
53666;SDS011;39568;51.026;5.468;2023-02-15T06:24:35;156.32;;;58.17;;
53666;SDS011;39568;51.026;5.468;2023-02-15T06:27:02;170.02;;;56.30;;
53666;SDS011;39568;51.026;5.468;2023-02-15T06:29:29;165.25;;;56.28;;
53666;SDS011;39568;51.026;5.468;2023-02-15T06:31:56;152.68;;;52.80;;
53666;SDS011;39568;51.026;5.468;2023-02-15T06:34:24;151.02;;;56.10;;
53666;SDS011;39568;51.026;5.468;2023-02-15T06:36:50;166.80;;;56.60;;
53666;SDS011;39568;51.026;5.468;2023-02-15T06:39:17;144.13;;;54.53;;
53666;SDS011;39568;51.026;5.468;2023-02-15T06:41:44;154.20;;;57.65;;
53666;SDS011;39568;51.026;5.468;2023-02-15T06:44:10;142.88;;;53.00;;
53666;SDS011;39568;51.026;5.468;2023-02-15T06:46:37;129.02;;;50.10;;
53666;SDS011;39568;51.026;5.468;2023-02-15T06:49:04;139.48;;;53.10;;
53666;SDS011;39568;51.026;5.468;2023-02-15T06:51:32;149.77;;;55.25;;
53666;SDS011;39568;51.026;5.468;2023-02-15T06:53:59;136.73;;;57.40;;
53666;SDS011;39568;51.026;5.468;2023-02-15T06:56:26;135.38;;;52.63;;
53666;SDS011;39568;51.026;5.468;2023-02-15T06:58:53;148.80;;;53.50;;
53666;SDS011;39568;51.026;5.468;2023-02-15T07:01:19;133.07;;;51.13;;
53666;SDS011;39568;51.026;5.468;2023-02-15T07:03:46;139.45;;;54.92;;
53666;SDS011;39568;51.026;5.468;2023-02-15T07:06:13;126.13;;;50.55;;
53666;SDS011;39568;51.026;5.468;2023-02-15T07:08:41;166.05;;;59.28;;
53666;SDS011;39568;51.026;5.468;2023-02-15T07:11:07;157.13;;;55.65;;
53666;SDS011;39568;51.026;5.468;2023-02-15T07:13:51;167.82;;;58.00;;
53666;SDS011;39568;51.026;5.468;2023-02-15T07:16:18;144.52;;;53.70;;
53666;SDS011;39568;51.026;5.468;2023-02-15T07:18:45;158.77;;;57.80;;
53666;SDS011;39568;51.026;5.468;2023-02-15T07:21:12;152.27;;;56.97;;
53666;SDS011;39568;51.026;5.468;2023-02-15T07:23:40;150.85;;;57.72;;
53666;SDS011;39568;51.026;5.468;2023-02-15T07:26:07;156.70;;;56.92;;
53666;SDS011;39568;51.026;5.468;2023-02-15T07:28:34;146.57;;;57.63;;
53666;SDS011;39568;51.026;5.468;2023-02-15T07:31:01;148.55;;;57.75;;
53666;SDS011;39568;51.026;5.468;2023-02-15T07:33:29;131.05;;;52.38;;
53666;SDS011;39568;51.026;5.468;2023-02-15T07:35:57;153.43;;;58.40;;
53666;SDS011;39568;51.026;5.468;2023-02-15T07:38:26;139.85;;;55.72;;
53666;SDS011;39568;51.026;5.468;2023-02-15T07:40:58;140.75;;;53.28;;
53666;SDS011;39568;51.026;5.468;2023-02-15T07:43:25;136.57;;;56.60;;
53666;SDS011;39568;51.026;5.468;2023-02-15T07:45:52;145.25;;;55.65;;
53666;SDS011;39568;51.026;5.468;2023-02-15T07:48:19;151.27;;;57.22;;
53666;SDS011;39568;51.026;5.468;2023-02-15T07:50:46;141.80;;;58.95;;
53666;SDS011;39568;51.026;5.468;2023-02-15T07:53:12;142.55;;;58.55;;
53666;SDS011;39568;51.026;5.468;2023-02-15T07:55:39;139.98;;;58.60;;
53666;SDS011;39568;51.026;5.468;2023-02-15T07:58:07;121.03;;;55.40;;
53666;SDS011;39568;51.026;5.468;2023-02-15T08:00:34;148.30;;;55.85;;
53666;SDS011;39568;51.026;5.468;2023-02-15T08:03:22;122.55;;;52.95;;
53666;SDS011;39568;51.026;5.468;2023-02-15T08:05:55;109.80;;;50.60;;
53666;SDS011;39568;51.026;5.468;2023-02-15T08:10:57;111.90;;;46.00;;
53666;SDS011;39568;51.026;5.468;2023-02-15T08:13:44;103.47;;;44.13;;
53666;SDS011;39568;51.026;5.468;2023-02-15T08:16:21;97.80;;;43.38;;
53666;SDS011;39568;51.026;5.468;2023-02-15T08:18:48;86.72;;;36.75;;
53666;SDS011;39568;51.026;5.468;2023-02-15T08:21:15;78.25;;;35.45;;
53666;SDS011;39568;51.026;5.468;2023-02-15T08:23:42;71.68;;;32.95;;
53666;SDS011;39568;51.026;5.468;2023-02-15T08:26:09;73.55;;;31.65;;
53666;SDS011;39568;51.026;5.468;2023-02-15T08:28:36;67.53;;;31.65;;
53666;SDS011;39568;51.026;5.468;2023-02-15T08:31:07;66.93;;;29.27;;
53666;SDS011;39568;51.026;5.468;2023-02-15T08:33:35;74.93;;;29.95;;
53666;SDS011;39568;51.026;5.468;2023-02-15T08:36:02;60.00;;;29.58;;
53666;SDS011;39568;51.026;5.468;2023-02-15T08:38:30;68.38;;;26.27;;
53666;SDS011;39568;51.026;5.468;2023-02-15T08:40:57;52.17;;;25.60;;
53666;SDS011;39568;51.026;5.468;2023-02-15T08:43:24;56.70;;;26.92;;
53666;SDS011;39568;51.026;5.468;2023-02-15T08:45:50;56.25;;;25.70;;
53666;SDS011;39568;51.026;5.468;2023-02-15T08:48:18;56.75;;;25.45;;
53666;SDS011;39568;51.026;5.468;2023-02-15T08:50:45;49.92;;;23.42;;
53666;SDS011;39568;51.026;5.468;2023-02-15T08:53:12;55.10;;;23.42;;
53666;SDS011;39568;51.026;5.468;2023-02-15T08:55:38;46.85;;;23.40;;
53666;SDS011;39568;51.026;5.468;2023-02-15T08:58:05;63.03;;;25.08;;
53666;SDS011;39568;51.026;5.468;2023-02-15T09:00:32;53.22;;;23.75;;
53666;SDS011;39568;51.026;5.468;2023-02-15T09:02:59;50.33;;;25.40;;
53666;SDS011;39568;51.026;5.468;2023-02-15T09:05:27;41.88;;;23.05;;
53666;SDS011;39568;51.026;5.468;2023-02-15T09:07:54;54.00;;;22.88;;
53666;SDS011;39568;51.026;5.468;2023-02-15T09:10:20;48.03;;;22.02;;
53666;SDS011;39568;51.026;5.468;2023-02-15T09:12:47;47.22;;;23.77;;
53666;SDS011;39568;51.026;5.468;2023-02-15T09:15:15;45.40;;;24.48;;
53666;SDS011;39568;51.026;5.468;2023-02-15T09:17:42;51.58;;;23.33;;
53666;SDS011;39568;51.026;5.468;2023-02-15T09:20:09;59.42;;;23.05;;
53666;SDS011;39568;51.026;5.468;2023-02-15T09:22:37;54.95;;;22.92;;
53666;SDS011;39568;51.026;5.468;2023-02-15T09:25:04;44.00;;;22.23;;
53666;SDS011;39568;51.026;5.468;2023-02-15T09:27:31;49.38;;;23.10;;
53666;SDS011;39568;51.026;5.468;2023-02-15T09:29:58;43.15;;;23.13;;
53666;SDS011;39568;51.026;5.468;2023-02-15T09:32:24;42.13;;;21.88;;
53666;SDS011;39568;51.026;5.468;2023-02-15T09:34:51;45.80;;;21.95;;
53666;SDS011;39568;51.026;5.468;2023-02-15T09:37:18;45.97;;;22.60;;
53666;SDS011;39568;51.026;5.468;2023-02-15T09:39:46;50.28;;;24.48;;
53666;SDS011;39568;51.026;5.468;2023-02-15T09:42:26;39.78;;;17.45;;
53666;SDS011;39568;51.026;5.468;2023-02-15T09:45:11;42.25;;;19.02;;
53666;SDS011;39568;51.026;5.468;2023-02-15T09:47:53;35.08;;;17.30;;
53666;SDS011;39568;51.026;5.468;2023-02-15T09:50:36;34.22;;;14.90;;
53666;SDS011;39568;51.026;5.468;2023-02-15T09:53:19;34.38;;;17.67;;
53666;SDS011;39568;51.026;5.468;2023-02-15T09:56:01;35.08;;;18.05;;
53666;SDS011;39568;51.026;5.468;2023-02-15T09:58:36;36.55;;;18.88;;
53666;SDS011;39568;51.026;5.468;2023-02-15T10:01:12;42.28;;;18.70;;
53666;SDS011;39568;51.026;5.468;2023-02-15T10:03:53;37.10;;;16.92;;
53666;SDS011;39568;51.026;5.468;2023-02-15T10:06:32;35.20;;;17.30;;
53666;SDS011;39568;51.026;5.468;2023-02-15T10:09:12;33.88;;;18.17;;
53666;SDS011;39568;51.026;5.468;2023-02-15T10:11:54;38.25;;;19.73;;
53666;SDS011;39568;51.026;5.468;2023-02-15T10:14:49;37.78;;;17.90;;
53666;SDS011;39568;51.026;5.468;2023-02-15T10:17:45;44.78;;;20.05;;
53666;SDS011;39568;51.026;5.468;2023-02-15T10:20:23;53.30;;;22.35;;
53666;SDS011;39568;51.026;5.468;2023-02-15T10:23:03;38.80;;;18.30;;
53666;SDS011;39568;51.026;5.468;2023-02-15T10:25:50;40.72;;;17.75;;
53666;SDS011;39568;51.026;5.468;2023-02-15T10:28:26;38.50;;;15.52;;
53666;SDS011;39568;51.026;5.468;2023-02-15T10:31:01;34.63;;;16.10;;
53666;SDS011;39568;51.026;5.468;2023-02-15T10:33:38;46.15;;;18.25;;
53666;SDS011;39568;51.026;5.468;2023-02-15T10:36:10;36.22;;;17.08;;
53666;SDS011;39568;51.026;5.468;2023-02-15T10:38:45;39.97;;;18.60;;
53666;SDS011;39568;51.026;5.468;2023-02-15T10:41:24;39.42;;;17.70;;
53666;SDS011;39568;51.026;5.468;2023-02-15T10:49:58;35.15;;;16.65;;
53666;SDS011;39568;51.026;5.468;2023-02-15T10:52:35;36.40;;;17.75;;
53666;SDS011;39568;51.026;5.468;2023-02-15T10:55:14;37.70;;;17.17;;
53666;SDS011;39568;51.026;5.468;2023-02-15T10:57:51;35.00;;;17.25;;
53666;SDS011;39568;51.026;5.468;2023-02-15T11:00:29;31.00;;;14.23;;
53666;SDS011;39568;51.026;5.468;2023-02-15T11:03:14;38.95;;;19.00;;
53666;SDS011;39568;51.026;5.468;2023-02-15T11:05:52;38.65;;;16.75;;
53666;SDS011;39568;51.026;5.468;2023-02-15T11:08:27;42.08;;;17.60;;
53666;SDS011;39568;51.026;5.468;2023-02-15T11:10:59;33.70;;;18.48;;
53666;SDS011;39568;51.026;5.468;2023-02-15T11:13:31;42.22;;;17.20;;
53666;SDS011;39568;51.026;5.468;2023-02-15T11:16:03;34.33;;;17.60;;
53666;SDS011;39568;51.026;5.468;2023-02-15T11:18:32;32.88;;;15.18;;
53666;SDS011;39568;51.026;5.468;2023-02-15T11:21:03;31.27;;;16.65;;
53666;SDS011;39568;51.026;5.468;2023-02-15T11:23:33;46.42;;;18.58;;
53666;SDS011;39568;51.026;5.468;2023-02-15T11:26:03;39.45;;;17.40;;
53666;SDS011;39568;51.026;5.468;2023-02-15T11:28:37;39.58;;;17.25;;
53666;SDS011;39568;51.026;5.468;2023-02-15T11:31:12;35.63;;;17.98;;
53666;SDS011;39568;51.026;5.468;2023-02-15T11:33:43;24.42;;;11.63;;
53666;SDS011;39568;51.026;5.468;2023-02-15T11:36:13;36.60;;;16.52;;
53666;SDS011;39568;51.026;5.468;2023-02-15T11:38:43;28.73;;;14.45;;
53666;SDS011;39568;51.026;5.468;2023-02-15T11:43:46;32.83;;;16.23;;
53666;SDS011;39568;51.026;5.468;2023-02-15T11:46:18;27.58;;;13.15;;
53666;SDS011;39568;51.026;5.468;2023-02-15T11:48:46;34.80;;;14.82;;
53666;SDS011;39568;51.026;5.468;2023-02-15T11:51:14;36.67;;;18.15;;
53666;SDS011;39568;51.026;5.468;2023-02-15T11:53:43;31.20;;;16.05;;
53666;SDS011;39568;51.026;5.468;2023-02-15T11:56:14;33.58;;;18.15;;
53666;SDS011;39568;51.026;5.468;2023-02-15T11:58:43;35.92;;;17.80;;
53666;SDS011;39568;51.026;5.468;2023-02-15T12:01:14;37.83;;;16.67;;
53666;SDS011;39568;51.026;5.468;2023-02-15T12:03:46;35.13;;;18.85;;
53666;SDS011;39568;51.026;5.468;2023-02-15T12:06:16;29.45;;;12.93;;
53666;SDS011;39568;51.026;5.468;2023-02-15T12:08:52;35.45;;;16.00;;
53666;SDS011;39568;51.026;5.468;2023-02-15T12:11:25;34.17;;;15.82;;
53666;SDS011;39568;51.026;5.468;2023-02-15T12:13:58;38.55;;;16.40;;
53666;SDS011;39568;51.026;5.468;2023-02-15T12:16:26;31.48;;;14.82;;
53666;SDS011;39568;51.026;5.468;2023-02-15T12:18:56;37.20;;;18.63;;
53666;SDS011;39568;51.026;5.468;2023-02-15T12:21:26;40.35;;;16.80;;
53666;SDS011;39568;51.026;5.468;2023-02-15T12:23:57;39.95;;;17.00;;
53666;SDS011;39568;51.026;5.468;2023-02-15T12:26:27;33.13;;;16.27;;
53666;SDS011;39568;51.026;5.468;2023-02-15T12:28:57;30.52;;;16.20;;
53666;SDS011;39568;51.026;5.468;2023-02-15T12:31:28;38.15;;;16.48;;
53666;SDS011;39568;51.026;5.468;2023-02-15T12:34:00;30.25;;;13.88;;
53666;SDS011;39568;51.026;5.468;2023-02-15T12:36:39;33.70;;;17.45;;
53666;SDS011;39568;51.026;5.468;2023-02-15T12:39:18;31.98;;;14.55;;
53666;SDS011;39568;51.026;5.468;2023-02-15T12:41:57;16.52;;;8.60;;
53666;SDS011;39568;51.026;5.468;2023-02-15T12:44:27;30.50;;;13.65;;
53666;SDS011;39568;51.026;5.468;2023-02-15T12:46:55;29.77;;;14.20;;
53666;SDS011;39568;51.026;5.468;2023-02-15T12:49:25;38.05;;;18.13;;
53666;SDS011;39568;51.026;5.468;2023-02-15T12:51:54;29.17;;;14.02;;
53666;SDS011;39568;51.026;5.468;2023-02-15T12:54:26;55.03;;;17.35;;
53666;SDS011;39568;51.026;5.468;2023-02-15T12:56:55;40.10;;;18.30;;
53666;SDS011;39568;51.026;5.468;2023-02-15T12:59:23;41.25;;;18.58;;
53666;SDS011;39568;51.026;5.468;2023-02-15T13:01:50;30.80;;;14.02;;
53666;SDS011;39568;51.026;5.468;2023-02-15T13:04:21;36.38;;;15.45;;
53666;SDS011;39568;51.026;5.468;2023-02-15T13:09:20;37.00;;;16.48;;
53666;SDS011;39568;51.026;5.468;2023-02-15T13:11:55;36.58;;;16.27;;
53666;SDS011;39568;51.026;5.468;2023-02-15T13:14:25;39.30;;;17.17;;
53666;SDS011;39568;51.026;5.468;2023-02-15T13:16:57;33.90;;;16.65;;
53666;SDS011;39568;51.026;5.468;2023-02-15T13:19:29;41.50;;;20.83;;
53666;SDS011;39568;51.026;5.468;2023-02-15T13:22:02;34.33;;;13.75;;
53666;SDS011;39568;51.026;5.468;2023-02-15T13:26:59;42.40;;;16.98;;
53666;SDS011;39568;51.026;5.468;2023-02-15T13:29:28;40.55;;;19.27;;
53666;SDS011;39568;51.026;5.468;2023-02-15T13:31:57;32.42;;;13.82;;
53666;SDS011;39568;51.026;5.468;2023-02-15T13:34:28;39.53;;;18.13;;
53666;SDS011;39568;51.026;5.468;2023-02-15T13:37:00;42.85;;;18.48;;
53666;SDS011;39568;51.026;5.468;2023-02-15T13:39:33;37.13;;;16.55;;
53666;SDS011;39568;51.026;5.468;2023-02-15T13:42:09;38.92;;;17.40;;
53666;SDS011;39568;51.026;5.468;2023-02-15T13:45:02;39.23;;;18.07;;
53666;SDS011;39568;51.026;5.468;2023-02-15T13:47:47;45.10;;;19.33;;
53666;SDS011;39568;51.026;5.468;2023-02-15T13:50:31;36.53;;;17.13;;
53666;SDS011;39568;51.026;5.468;2023-02-15T13:53:16;31.08;;;16.25;;
53666;SDS011;39568;51.026;5.468;2023-02-15T13:56:05;33.65;;;14.52;;
53666;SDS011;39568;51.026;5.468;2023-02-15T13:58:45;34.63;;;16.40;;
53666;SDS011;39568;51.026;5.468;2023-02-15T14:01:28;30.63;;;15.82;;
53666;SDS011;39568;51.026;5.468;2023-02-15T14:04:10;33.88;;;17.70;;
53666;SDS011;39568;51.026;5.468;2023-02-15T14:09:51;41.92;;;18.88;;
53666;SDS011;39568;51.026;5.468;2023-02-15T14:12:38;36.22;;;18.30;;
53666;SDS011;39568;51.026;5.468;2023-02-15T14:15:26;37.00;;;17.83;;
53666;SDS011;39568;51.026;5.468;2023-02-15T14:18:04;33.13;;;17.27;;
53666;SDS011;39568;51.026;5.468;2023-02-15T14:20:41;33.78;;;16.15;;
53666;SDS011;39568;51.026;5.468;2023-02-15T14:23:19;36.25;;;17.73;;
53666;SDS011;39568;51.026;5.468;2023-02-15T14:25:57;34.80;;;16.65;;
53666;SDS011;39568;51.026;5.468;2023-02-15T14:28:28;34.28;;;17.85;;
53666;SDS011;39568;51.026;5.468;2023-02-15T14:31:06;42.67;;;19.33;;
53666;SDS011;39568;51.026;5.468;2023-02-15T14:33:37;34.47;;;18.50;;
53666;SDS011;39568;51.026;5.468;2023-02-15T14:36:06;33.58;;;16.25;;
53666;SDS011;39568;51.026;5.468;2023-02-15T14:38:44;47.42;;;22.88;;
53666;SDS011;39568;51.026;5.468;2023-02-15T14:41:22;35.50;;;17.95;;
53666;SDS011;39568;51.026;5.468;2023-02-15T14:43:58;37.85;;;17.80;;
53666;SDS011;39568;51.026;5.468;2023-02-15T14:46:34;33.20;;;14.75;;
53666;SDS011;39568;51.026;5.468;2023-02-15T14:49:06;35.10;;;17.10;;
53666;SDS011;39568;51.026;5.468;2023-02-15T14:51:56;30.80;;;15.38;;
53666;SDS011;39568;51.026;5.468;2023-02-15T14:57:27;30.73;;;14.77;;
53666;SDS011;39568;51.026;5.468;2023-02-15T14:59:57;39.25;;;16.27;;
53666;SDS011;39568;51.026;5.468;2023-02-15T15:02:26;32.42;;;14.45;;
53666;SDS011;39568;51.026;5.468;2023-02-15T15:05:00;42.88;;;14.82;;
53666;SDS011;39568;51.026;5.468;2023-02-15T15:07:36;33.47;;;17.00;;
53666;SDS011;39568;51.026;5.468;2023-02-15T15:10:32;30.33;;;14.02;;
53666;SDS011;39568;51.026;5.468;2023-02-15T15:18:55;36.90;;;16.63;;
53666;SDS011;39568;51.026;5.468;2023-02-15T15:37:09;39.22;;;16.98;;
53666;SDS011;39568;51.026;5.468;2023-02-15T15:43:31;23.38;;;13.73;;